If you wish to contribute or participate in the discussions about articles you are invited to join SKYbrary as a registered user

 Actions

Metz-Nancy-Lorraine Airport

From SKYbrary Wiki

LFJL /
Revision as of 20:14, 16 February 2015 by Timo.Kouwenhoven (talk | contribs) (LF Airports CSV import)
(diff) ← Older revision | Latest revision (diff) | Newer revision → (diff)
Airport
ICAO: LFJL – IATA: ETZ
Summary
Name Metz-Nancy-Lorraine Airport
Region Europe
Territory France FR.gif
Location , Lorraine
Serving Metz
Elevation 265.176 m
870 ft
870 ft265.176 m
Type medium airport
Coordinates 48° 58' 55.71" N, 6° 15' 4.75" E
Runways
Designator Length Width Surface ROPS
4/22 2500 m8,202.1 ft
45 m147.638 ft
ASP yes/yes


METAR
Observation LFJL 251100Z AUTO VRB03KT CAVOK 28/15 Q1019 NOSIG
Station Metz-Nancy-Lorraine
Date/Time 25 August 2019 11:00:00
Wind direction °
Wind speed 03 kts
Lowest cloud amount clouds and visibility OK
Temperature 28°C
Dew point 15°C
Humidity 45%
QNH 1019 hPa
Weather condition n/a